createdAt,value
2024-02-07T00:00:57.672Z,96873.53
2024-02-07T00:01:59.514Z,96876.97
2024-02-07T00:03:01.185Z,96882.41
2024-02-07T00:04:04.785Z,96886.28
2024-02-07T00:05:06.835Z,96889.38
2024-02-07T00:06:08.518Z,96886.66
2024-02-07T00:07:10.201Z,96887.44
2024-02-07T00:08:11.925Z,96890.53
2024-02-07T00:09:13.496Z,96893.25
2024-02-07T00:10:15.272Z,96895.59
2024-02-07T00:11:16.867Z,96890.53
2024-02-07T00:12:19.137Z,96892.09
2024-02-07T00:13:20.758Z,96889.38
2024-02-07T00:14:22.319Z,96887.81
2024-02-07T00:15:23.898Z,96886.63
2024-02-07T00:16:25.629Z,96892.75
2024-02-07T00:17:27.240Z,96886.84
2024-02-07T00:18:28.849Z,96893.34
2024-02-07T00:19:30.612Z,96885.94
2024-02-07T00:20:32.259Z,96887.00
2024-02-07T00:21:33.976Z,96884.22
2024-02-07T00:22:35.695Z,96889.53
2024-02-07T00:23:37.338Z,96895.66
2024-02-07T00:24:40.549Z,96894.13
2024-02-07T00:25:42.951Z,96888.22
2024-02-07T00:26:44.672Z,96895.13
2024-02-07T00:27:47.402Z,96896.25
2024-02-07T00:28:50.735Z,96895.06
2024-02-07T00:29:52.391Z,96889.28
2024-02-07T00:30:53.996Z,96891.59
2024-02-07T00:31:55.642Z,96894.34
2024-02-07T00:32:57.239Z,96892.41
2024-02-07T00:33:58.947Z,96890.91
2024-02-07T00:35:00.587Z,96885.53
2024-02-07T00:36:02.450Z,96880.88
2024-02-07T00:37:04.359Z,96894.44
2024-02-07T00:38:05.948Z,96892.91
2024-02-07T00:39:07.659Z,96893.72
2024-02-07T00:40:12.529Z,96886.38
2024-02-07T00:41:24.313Z,96891.41
2024-02-07T00:42:26.227Z,96883.69
2024-02-07T00:43:27.796Z,96882.56
2024-02-07T00:44:29.409Z,96881.38
2024-02-07T00:45:31.420Z,96887.97
2024-02-07T00:46:33.521Z,96884.09
2024-02-07T00:47:35.164Z,96883.34
2024-02-07T00:48:36.752Z,96881.41
2024-02-07T00:49:38.691Z,96886.47
2024-02-07T00:50:40.305Z,96882.19
2024-02-07T00:51:41.917Z,96898.75
2024-02-07T00:52:43.618Z,96888.16
2024-02-07T00:53:45.283Z,96888.94
2024-02-07T00:54:46.871Z,96892.81
2024-02-07T00:55:48.598Z,96894.78
2024-02-07T00:56:50.704Z,96899.28
2024-02-07T00:57:52.536Z,96889.75
2024-02-07T00:58:54.201Z,96885.88
2024-02-07T00:59:55.769Z,96885.94
2024-02-07T01:00:57.962Z,96887.81
2024-02-07T01:01:59.741Z,96888.16
2024-02-07T01:03:01.514Z,96891.91
2024-02-07T01:04:04.010Z,96893.34
2024-02-07T01:05:06.235Z,96882.47
2024-02-07T01:06:08.204Z,96890.09
2024-02-07T01:07:10.068Z,96883.88
2024-02-07T01:08:12.583Z,96887.06
2024-02-07T01:09:14.308Z,96886.63
2024-02-07T01:10:16.079Z,96886.19
2024-02-07T01:11:17.804Z,96887.38
2024-02-07T01:12:20.325Z,96890.09
2024-02-07T01:13:21.970Z,96892.44
2024-02-07T01:14:23.691Z,96892.47
2024-02-07T01:15:25.566Z,96892.13
2024-02-07T01:16:27.132Z,96889.03
2024-02-07T01:17:28.849Z,96889.44
2024-02-07T01:18:30.523Z,96887.13
2024-02-07T01:19:32.132Z,96887.53
2024-02-07T01:20:34.075Z,96896.81
2024-02-07T01:21:36.257Z,96896.44
2024-02-07T01:22:38.623Z,96891.50
2024-02-07T01:23:44.757Z,96895.78
2024-02-07T01:24:46.502Z,96893.84
2024-02-07T01:25:48.392Z,96894.19
2024-02-07T01:26:50.011Z,96894.97
2024-02-07T01:27:51.586Z,96897.22
2024-02-07T01:28:53.349Z,96897.53
2024-02-07T01:29:56.494Z,96895.22
2024-02-07T01:30:59.600Z,96887.47
2024-02-07T01:32:01.207Z,96891.94
2024-02-07T01:33:03.494Z,96891.03
2024-02-07T01:34:05.242Z,96893.38
2024-02-07T01:35:07.839Z,96891.44
2024-02-07T01:36:09.763Z,96899.56
2024-02-07T01:37:11.451Z,96896.81
2024-02-07T01:38:19.070Z,96897.47
2024-02-07T01:39:20.792Z,96885.81
2024-02-07T01:40:25.111Z,96889.22
2024-02-07T01:41:29.790Z,96885.75
2024-02-07T01:42:33.399Z,96884.22
2024-02-07T01:43:35.546Z,96884.63
2024-02-07T01:44:39.129Z,96880.75
2024-02-07T01:45:41.497Z,96878.06
2024-02-07T01:46:43.304Z,96880.34
2024-02-07T01:47:45.082Z,96881.34
2024-02-07T01:48:47.970Z,96877.38
2024-02-07T01:49:52.229Z,96884.56
2024-02-07T01:50:55.742Z,96883.69
2024-02-07T01:51:57.355Z,96881.22
2024-02-07T01:53:01.476Z,96885.06
2024-02-07T01:54:03.538Z,96880.47
2024-02-07T01:55:05.232Z,96883.69
2024-02-07T01:56:11.283Z,96877.19
2024-02-07T01:57:14.354Z,96882.28
2024-02-07T01:58:17.383Z,96873.88
2024-02-07T01:59:20.209Z,96871.63
2024-02-07T02:00:22.727Z,96871.31
2024-02-07T02:01:24.541Z,96875.63
2024-02-07T02:02:27.024Z,96874.03
2024-02-07T02:03:28.834Z,96871.72
2024-02-07T02:04:31.229Z,96872.41
2024-02-07T02:05:32.898Z,96868.09
2024-02-07T02:06:34.495Z,96866.16
2024-02-07T02:07:36.218Z,96863.09
2024-02-07T02:08:37.951Z,96866.22
2024-02-07T02:09:40.472Z,96858.84
2024-02-07T02:10:42.357Z,96864.50
2024-02-07T02:11:47.193Z,96866.47
2024-02-07T02:12:49.052Z,96856.13
2024-02-07T02:13:52.529Z,96866.28
2024-02-07T02:14:54.382Z,96859.78
2024-02-07T02:15:56.615Z,96855.16
2024-02-07T02:17:00.785Z,96853.59
2024-02-07T02:18:03.860Z,96855.56
2024-02-07T02:19:05.546Z,96845.59
2024-02-07T02:20:09.050Z,96854.47
2024-02-07T02:21:11.648Z,96846.38
2024-02-07T02:22:37.688Z,96854.09
2024-02-07T02:24:00.679Z,96849.91
2024-02-07T02:25:28.957Z,96847.56
2024-02-07T02:27:09.242Z,96846.00
2024-02-07T02:28:30.814Z,96855.25
2024-02-07T02:29:38.358Z,96849.44
2024-02-07T02:30:51.877Z,96843.69
2024-02-07T02:31:57.609Z,96836.34
2024-02-07T02:33:10.370Z,96834.81
2024-02-07T02:34:13.243Z,96847.19
2024-02-07T02:35:18.217Z,96848.31
2024-02-07T02:36:19.894Z,96850.25
2024-02-07T02:37:22.930Z,96843.69
2024-02-07T02:38:26.599Z,96847.91
2024-02-07T02:39:31.095Z,96846.44
2024-02-07T02:40:33.416Z,96846.84
2024-02-07T02:41:35.099Z,96846.47
2024-02-07T02:42:36.669Z,96848.44
2024-02-07T02:43:38.709Z,96849.63
2024-02-07T02:44:41.079Z,96848.06
2024-02-07T02:45:42.837Z,96849.94
2024-02-07T02:46:45.058Z,96842.63
2024-02-07T02:47:46.842Z,96846.13
2024-02-07T02:48:48.569Z,96848.47
2024-02-07T02:49:50.308Z,96838.88
2024-02-07T02:50:52.532Z,96840.41
2024-02-07T02:51:54.137Z,96843.97
2024-02-07T02:52:56.963Z,96847.38
2024-02-07T02:53:58.534Z,96845.09
2024-02-07T02:55:00.467Z,96847.06
2024-02-07T02:56:06.657Z,96841.31
2024-02-07T02:57:09.346Z,96849.44
2024-02-07T02:58:12.743Z,96847.94
2024-02-07T02:59:15.675Z,96848.69
2024-02-07T03:00:21.793Z,96851.00
2024-02-07T03:01:25.112Z,96837.06
2024-02-07T03:02:27.487Z,96839.78
2024-02-07T03:03:32.071Z,96839.41
2024-02-07T03:04:36.308Z,96837.84
2024-02-07T03:05:44.274Z,96839.41
2024-02-07T03:07:14.450Z,96841.72
2024-02-07T03:08:22.541Z,96837.81
2024-02-07T03:09:27.871Z,96835.84
2024-02-07T03:10:29.433Z,96848.16
2024-02-07T03:11:31.021Z,96841.97
2024-02-07T03:12:33.386Z,96842.34
2024-02-07T03:13:35.563Z,96840.78
2024-02-07T03:14:37.223Z,96851.59
2024-02-07T03:15:38.959Z,96849.63
2024-02-07T03:16:40.546Z,96849.28
2024-02-07T03:17:43.735Z,96843.47
2024-02-07T03:18:45.566Z,96850.41
2024-02-07T03:19:47.603Z,96842.28
2024-02-07T03:20:50.988Z,96841.53
2024-02-07T03:21:52.599Z,96847.59
2024-02-07T03:22:55.591Z,96845.44
2024-02-07T03:23:57.470Z,96846.84
2024-02-07T03:24:59.026Z,96847.81
2024-02-07T03:26:02.294Z,96849.00
2024-02-07T03:27:04.452Z,96853.63
2024-02-07T03:28:06.282Z,96849.09
2024-02-07T03:29:07.890Z,96848.34
2024-02-07T03:30:09.769Z,96847.22
2024-02-07T03:31:12.008Z,96846.44
2024-02-07T03:32:13.719Z,96841.09
2024-02-07T03:33:15.523Z,96843.78
2024-02-07T03:34:17.945Z,96848.41
2024-02-07T03:35:20.247Z,96850.31
2024-02-07T03:36:23.155Z,96846.09
2024-02-07T03:37:24.781Z,96857.66
2024-02-07T03:38:26.446Z,96849.91
2024-02-07T03:39:28.021Z,96851.91
2024-02-07T03:40:29.654Z,96851.09
2024-02-07T03:41:31.420Z,96853.06
2024-02-07T03:42:33.866Z,96846.44
2024-02-07T03:43:35.532Z,96846.81
2024-02-07T03:44:40.040Z,96858.31
2024-02-07T03:45:43.860Z,96851.31
2024-02-07T03:46:45.770Z,96847.41
2024-02-07T03:47:48.339Z,96844.31
2024-02-07T03:48:49.989Z,96849.00
2024-02-07T03:49:53.417Z,96844.78
2024-02-07T03:50:55.065Z,96844.31
2024-02-07T03:51:56.661Z,96845.75
2024-02-07T03:52:58.367Z,96844.03
2024-02-07T03:54:00.454Z,96833.41
2024-02-07T03:55:02.337Z,96834.59
2024-02-07T03:56:04.179Z,96831.81
2024-02-07T03:57:06.024Z,96829.91
2024-02-07T03:58:08.103Z,96832.25
2024-02-07T03:59:09.751Z,96843.88
2024-02-07T04:00:14.635Z,96838.88
2024-02-07T04:01:19.617Z,96844.38
2024-02-07T04:02:23.864Z,96847.16
2024-02-07T04:03:25.471Z,96844.03
2024-02-07T04:04:27.122Z,96846.00
2024-02-07T04:05:29.394Z,96847.50
2024-02-07T04:06:31.621Z,96854.88
2024-02-07T04:07:34.493Z,96860.34
2024-02-07T04:08:40.695Z,96860.41
2024-02-07T04:09:43.043Z,96866.97
2024-02-07T04:10:44.767Z,96850.84
2024-02-07T04:11:46.566Z,96855.53
2024-02-07T04:12:48.128Z,96859.78
2024-02-07T04:13:49.725Z,96854.38
2024-02-07T04:14:51.289Z,96860.91
2024-02-07T04:16:11.526Z,96864.84
2024-02-07T04:17:31.654Z,96858.28
2024-02-07T04:18:51.755Z,96862.13
2024-02-07T04:20:12.031Z,96863.63
2024-02-07T04:21:43.986Z,96862.78
2024-02-07T04:23:10.601Z,96862.75
2024-02-07T04:24:30.430Z,96872.81
2024-02-07T04:25:50.509Z,96868.50
2024-02-07T04:27:15.792Z,96866.09
2024-02-07T04:28:37.168Z,96876.06
2024-02-07T04:29:57.249Z,96874.75
2024-02-07T04:31:17.218Z,96878.88
2024-02-07T04:32:37.272Z,96870.28
2024-02-07T04:33:57.225Z,96877.66
2024-02-07T04:35:17.492Z,96881.34
2024-02-07T04:36:37.530Z,96873.25
2024-02-07T04:37:57.536Z,96875.59
2024-02-07T04:39:17.830Z,96880.72
2024-02-07T04:40:38.873Z,96883.06
2024-02-07T04:42:00.046Z,96876.16
2024-02-07T04:43:20.461Z,96882.63
2024-02-07T04:44:40.574Z,96864.81
2024-02-07T04:46:00.950Z,96873.63
2024-02-07T04:47:20.910Z,96872.84
2024-02-07T04:48:41.014Z,96862.13
2024-02-07T04:50:01.081Z,96864.88
2024-02-07T04:51:21.231Z,96860.72
2024-02-07T04:52:41.277Z,96861.50
2024-02-07T04:54:01.268Z,96862.34
2024-02-07T04:55:21.228Z,96860.06
2024-02-07T04:56:41.272Z,96863.19
2024-02-07T04:58:01.168Z,96869.09
2024-02-07T04:59:24.188Z,96865.28
2024-02-07T05:00:44.644Z,96867.28
2024-02-07T05:02:07.646Z,96864.31
2024-02-07T05:03:33.326Z,96858.56
2024-02-07T05:04:53.275Z,96861.59
2024-02-07T05:06:13.626Z,96866.94
2024-02-07T05:07:34.088Z,96861.53
2024-02-07T05:08:53.941Z,96855.06
2024-02-07T05:10:14.499Z,96857.75
2024-02-07T05:11:34.717Z,96859.06
2024-02-07T05:12:54.742Z,96854.31
2024-02-07T05:14:14.449Z,96865.31
2024-02-07T05:15:15.937Z,96865.19
2024-02-07T05:16:17.728Z,96864.34
2024-02-07T05:17:22.102Z,96876.09
2024-02-07T05:18:23.931Z,96864.88
2024-02-07T05:19:25.700Z,96869.16
2024-02-07T05:20:27.427Z,96868.47
2024-02-07T05:21:29.013Z,96864.47
2024-02-07T05:22:30.838Z,96867.38
2024-02-07T05:23:32.451Z,96870.72
2024-02-07T05:24:34.395Z,96869.00
2024-02-07T05:25:36.176Z,96868.50
2024-02-07T05:26:39.359Z,96867.69
2024-02-07T05:27:40.909Z,96866.31
2024-02-07T05:28:43.027Z,96863.09
2024-02-07T05:29:45.371Z,96872.16
2024-02-07T05:30:47.115Z,96865.22
2024-02-07T05:31:51.580Z,96865.28
2024-02-07T05:32:55.310Z,96868.94
2024-02-07T05:33:57.009Z,96867.56
2024-02-07T05:34:58.808Z,96873.47
2024-02-07T05:36:00.702Z,96867.22
2024-02-07T05:37:03.465Z,96869.06
2024-02-07T05:38:05.140Z,96868.72
2024-02-07T05:39:06.878Z,96874.16
2024-02-07T05:40:08.997Z,96872.34
2024-02-07T05:41:10.575Z,96873.03
2024-02-07T05:42:12.167Z,96869.47
2024-02-07T05:43:14.012Z,96876.75
2024-02-07T05:44:16.331Z,96876.84
2024-02-07T05:45:18.041Z,96870.31
2024-02-07T05:46:20.834Z,96879.59
2024-02-07T05:47:22.415Z,96875.09
2024-02-07T05:48:24.014Z,96878.31
2024-02-07T05:49:26.892Z,96880.53
2024-02-07T05:50:29.197Z,96874.81
2024-02-07T05:51:30.844Z,96875.44
2024-02-07T05:52:32.490Z,96878.69
2024-02-07T05:53:34.069Z,96876.94
2024-02-07T05:54:35.702Z,96874.53
2024-02-07T05:55:37.430Z,96873.91
2024-02-07T05:56:39.173Z,96879.56
2024-02-07T05:57:41.257Z,96879.44
2024-02-07T05:58:43.064Z,96874.22
2024-02-07T05:59:44.813Z,96872.16
2024-02-07T06:00:46.620Z,96878.13
2024-02-07T06:01:51.111Z,96875.59
2024-02-07T06:02:52.723Z,96872.72
2024-02-07T06:03:54.914Z,96878.69
2024-02-07T06:04:58.616Z,96870.41
2024-02-07T06:06:00.363Z,96876.38
2024-02-07T06:07:02.450Z,96868.88
2024-02-07T06:08:05.398Z,96881.34
2024-02-07T06:09:08.077Z,96874.13
2024-02-07T06:10:10.656Z,96872.28
2024-02-07T06:11:12.427Z,96874.00
2024-02-07T06:12:14.071Z,96866.81
2024-02-07T06:13:15.666Z,96864.25
2024-02-07T06:14:17.295Z,96862.03
2024-02-07T06:15:18.978Z,96850.97
2024-02-07T06:16:21.086Z,96859.13
2024-02-07T06:17:22.855Z,96853.38
2024-02-07T06:18:24.401Z,96857.63
2024-02-07T06:19:26.044Z,96863.16
2024-02-07T06:20:28.232Z,96862.84
2024-02-07T06:21:29.917Z,96863.41
2024-02-07T06:22:31.499Z,96863.53
2024-02-07T06:23:33.076Z,96867.78
2024-02-07T06:24:34.746Z,96868.16
2024-02-07T06:25:36.420Z,96871.19
2024-02-07T06:26:37.985Z,96864.25
2024-02-07T06:27:39.563Z,96863.09
2024-02-07T06:28:41.246Z,96856.66
2024-02-07T06:29:43.682Z,96868.22
2024-02-07T06:30:45.695Z,96862.88
2024-02-07T06:31:47.277Z,96855.25
2024-02-07T06:32:48.874Z,96854.19
2024-02-07T06:33:51.110Z,96853.88
2024-02-07T06:34:52.887Z,96857.47
2024-02-07T06:35:54.502Z,96859.47
2024-02-07T06:36:56.073Z,96859.50
2024-02-07T06:37:57.730Z,96859.16
2024-02-07T06:38:59.561Z,96864.16
2024-02-07T06:40:01.332Z,96862.22
2024-02-07T06:41:03.093Z,96861.81
2024-02-07T06:42:05.165Z,96857.94
2024-02-07T06:43:06.856Z,96862.63
2024-02-07T06:44:08.487Z,96863.03
2024-02-07T06:45:10.368Z,96863.09
2024-02-07T06:46:12.025Z,96868.50
2024-02-07T06:47:13.862Z,96855.66
2024-02-07T06:48:16.040Z,96856.41
2024-02-07T06:49:17.995Z,96855.97
2024-02-07T06:50:20.574Z,96860.06
2024-02-07T06:51:22.517Z,96863.06
2024-02-07T06:52:24.096Z,96854.47
2024-02-07T06:53:25.750Z,96854.13
2024-02-07T06:54:28.238Z,96856.59
2024-02-07T06:55:29.912Z,96857.78
2024-02-07T06:56:33.348Z,96862.47
2024-02-07T06:57:36.003Z,96860.28
2024-02-07T06:58:37.616Z,96864.56
2024-02-07T06:59:39.186Z,96866.94
2024-02-07T07:00:41.127Z,96873.59
2024-02-07T07:01:43.380Z,96872.06
2024-02-07T07:02:49.993Z,96876.00
2024-02-07T07:03:58.524Z,96869.38
2024-02-07T07:05:00.200Z,96867.53
2024-02-07T07:06:02.195Z,96874.06
2024-02-07T07:07:04.013Z,96868.31
2024-02-07T07:08:07.848Z,96873.44
2024-02-07T07:09:09.835Z,96874.59
2024-02-07T07:10:11.556Z,96889.31
2024-02-07T07:11:13.214Z,96880.91
2024-02-07T07:12:14.851Z,96887.84
2024-02-07T07:13:16.545Z,96880.97
2024-02-07T07:14:18.282Z,96879.13
2024-02-07T07:15:29.980Z,96878.00
2024-02-07T07:16:34.808Z,96872.25
2024-02-07T07:17:36.441Z,96871.88
2024-02-07T07:18:38.040Z,96876.56
2024-02-07T07:19:40.784Z,96872.69
2024-02-07T07:20:42.445Z,96873.97
2024-02-07T07:21:43.975Z,96874.72
2024-02-07T07:22:53.118Z,96872.47
2024-02-07T07:24:00.693Z,96876.84
2024-02-07T07:25:02.266Z,96874.59
2024-02-07T07:26:04.337Z,96876.25
2024-02-07T07:27:06.556Z,96874.38
2024-02-07T07:28:08.375Z,96876.34
2024-02-07T07:29:12.093Z,96877.88
2024-02-07T07:30:14.060Z,96877.13
2024-02-07T07:31:15.712Z,96875.66
2024-02-07T07:32:17.357Z,96878.38
2024-02-07T07:33:19.022Z,96874.22
2024-02-07T07:34:20.805Z,96872.66
2024-02-07T07:35:22.546Z,96867.28
2024-02-07T07:36:28.262Z,96868.88
2024-02-07T07:37:30.048Z,96866.66
2024-02-07T07:38:31.699Z,96864.28
2024-02-07T07:39:33.309Z,96862.38
2024-02-07T07:40:35.995Z,96864.50
2024-02-07T07:41:40.609Z,96865.44
2024-02-07T07:42:43.151Z,96863.59
2024-02-07T07:43:44.917Z,96859.00
2024-02-07T07:44:46.544Z,96860.97
2024-02-07T07:45:48.085Z,96856.38
2024-02-07T07:46:49.774Z,96855.69
2024-02-07T07:47:51.955Z,96857.72
2024-02-07T07:48:53.815Z,96853.53
2024-02-07T07:49:55.538Z,96860.44
2024-02-07T07:50:57.131Z,96851.97
2024-02-07T07:51:58.714Z,96845.84
2024-02-07T07:53:00.392Z,96854.00
2024-02-07T07:54:02.030Z,96849.38
2024-02-07T07:55:03.941Z,96849.44
2024-02-07T07:56:07.376Z,96843.59
2024-02-07T07:57:09.054Z,96843.97
2024-02-07T07:58:10.599Z,96849.81
2024-02-07T07:59:13.789Z,96849.13
2024-02-07T08:00:15.920Z,96845.31
2024-02-07T08:01:23.787Z,96844.94
2024-02-07T08:02:27.892Z,96852.34
2024-02-07T08:03:29.517Z,96843.09
2024-02-07T08:04:31.172Z,96847.28
2024-02-07T08:05:33.451Z,96846.06
2024-02-07T08:06:36.065Z,96846.47
2024-02-07T08:07:37.789Z,96846.56
2024-02-07T08:08:39.665Z,96843.50
2024-02-07T08:09:43.028Z,96843.16
2024-02-07T08:10:47.884Z,96843.16
2024-02-07T08:11:50.114Z,96841.63
2024-02-07T08:12:51.748Z,96843.22
2024-02-07T08:13:53.368Z,96836.25
2024-02-07T08:14:55.190Z,96845.97
2024-02-07T08:15:56.773Z,96855.66
2024-02-07T08:16:58.463Z,96849.47
2024-02-07T08:18:00.207Z,96848.72
2024-02-07T08:19:01.850Z,96848.72
2024-02-07T08:20:04.315Z,96845.63
2024-02-07T08:21:06.786Z,96850.28
2024-02-07T08:22:08.460Z,96848.34
2024-02-07T08:23:10.091Z,96859.63
2024-02-07T08:24:11.666Z,96858.88
2024-02-07T08:25:14.396Z,96859.66
2024-02-07T08:26:16.033Z,96851.06
2024-02-07T08:27:17.593Z,96855.69
2024-02-07T08:28:19.334Z,96854.53
2024-02-07T08:29:20.912Z,96851.78
2024-02-07T08:30:22.602Z,96845.19
2024-02-07T08:31:24.230Z,96848.63
2024-02-07T08:32:25.939Z,96853.28
2024-02-07T08:33:27.659Z,96843.94
2024-02-07T08:34:29.654Z,96839.28
2024-02-07T08:35:31.657Z,96841.97
2024-02-07T08:36:33.706Z,96838.53
2024-02-07T08:37:35.462Z,96833.88
2024-02-07T08:38:37.149Z,96833.06
2024-02-07T08:39:38.736Z,96840.06
2024-02-07T08:40:40.363Z,96830.34
2024-02-07T08:41:42.336Z,96824.53
2024-02-07T08:42:45.560Z,96821.09
2024-02-07T08:43:48.003Z,96830.75
2024-02-07T08:44:49.599Z,96836.16
2024-02-07T08:45:51.270Z,96837.72
2024-02-07T08:46:52.924Z,96837.00
2024-02-07T08:47:54.767Z,96839.34
2024-02-07T08:48:56.454Z,96835.50
2024-02-07T08:49:58.636Z,96829.31
2024-02-07T08:51:00.327Z,96842.91
2024-02-07T08:52:01.904Z,96842.94
2024-02-07T08:53:03.870Z,96839.44
2024-02-07T08:54:05.677Z,96832.09
2024-02-07T08:55:10.985Z,96830.53
2024-02-07T08:56:12.646Z,96823.94
2024-02-07T08:57:14.708Z,96818.47
2024-02-07T08:58:16.316Z,96821.94
2024-02-07T08:59:17.985Z,96824.63
2024-02-07T09:00:19.762Z,96825.38
2024-02-07T09:01:21.910Z,96815.66
2024-02-07T09:02:23.709Z,96817.59
2024-02-07T09:03:25.399Z,96813.66
2024-02-07T09:04:27.057Z,96813.28
2024-02-07T09:05:28.845Z,96812.88
2024-02-07T09:06:30.679Z,96813.63
2024-02-07T09:07:32.910Z,96809.69
2024-02-07T09:08:34.735Z,96819.38
2024-02-07T09:09:36.516Z,96812.38
2024-02-07T09:10:38.116Z,96812.75
2024-02-07T09:11:39.728Z,96809.69
2024-02-07T09:12:41.684Z,96805.38
2024-02-07T09:13:43.318Z,96801.81
2024-02-07T09:14:44.940Z,96809.56
2024-02-07T09:15:46.552Z,96811.88
2024-02-07T09:16:48.224Z,96807.25
2024-02-07T09:17:49.997Z,96802.19
2024-02-07T09:18:53.501Z,96806.44
2024-02-07T09:19:55.228Z,96801.72
2024-02-07T09:20:56.861Z,96797.88
2024-02-07T09:21:58.576Z,96799.84
2024-02-07T09:23:00.334Z,96800.22
2024-02-07T09:24:01.979Z,96797.06
2024-02-07T09:25:03.838Z,96800.91
2024-02-07T09:26:05.987Z,96799.34
2024-02-07T09:27:08.011Z,96800.91
2024-02-07T09:28:09.556Z,96800.47
2024-02-07T09:29:11.203Z,96795.03
2024-02-07T09:30:14.328Z,96797.38
2024-02-07T09:31:16.326Z,96793.94
2024-02-07T09:32:19.645Z,96793.94
2024-02-07T09:33:21.456Z,96788.81
2024-02-07T09:34:23.482Z,96784.09
2024-02-07T09:35:25.688Z,96791.03
2024-02-07T09:36:28.412Z,96775.81
2024-02-07T09:37:30.080Z,96768.44
2024-02-07T09:38:32.337Z,96767.59
2024-02-07T09:39:33.967Z,96767.59
2024-02-07T09:40:35.607Z,96766.50
2024-02-07T09:41:42.599Z,96756.41
2024-02-07T09:42:45.341Z,96758.06
2024-02-07T09:43:49.219Z,96755.00
2024-02-07T09:44:52.339Z,96750.84
2024-02-07T09:46:00.790Z,96744.97
2024-02-07T09:47:03.300Z,96745.66
2024-02-07T09:48:21.752Z,96739.84
2024-02-07T09:49:25.971Z,96739.56
2024-02-07T09:50:27.897Z,96733.75
2024-02-07T09:51:30.425Z,96747.41
2024-02-07T09:52:33.124Z,96734.97
2024-02-07T09:53:36.976Z,96741.22
2024-02-07T09:54:39.135Z,96738.09
2024-02-07T09:55:42.080Z,96738.91
2024-02-07T09:56:44.916Z,96734.97
2024-02-07T09:57:48.327Z,96729.88
2024-02-07T09:58:50.231Z,96727.16
2024-02-07T09:59:53.679Z,96729.47
2024-02-07T10:00:55.897Z,96722.88
2024-02-07T10:01:57.694Z,96727.16
2024-02-07T10:02:59.547Z,96723.66
2024-02-07T10:04:02.674Z,96728.00
2024-02-07T10:05:07.410Z,96712.06
2024-02-07T10:06:10.832Z,96718.63
2024-02-07T10:07:14.171Z,96707.75
2024-02-07T10:08:16.246Z,96710.09
2024-02-07T10:09:18.478Z,96705.03
2024-02-07T10:10:21.195Z,96698.38
2024-02-07T10:11:23.838Z,96692.88
2024-02-07T10:12:25.570Z,96697.03
2024-02-07T10:13:28.257Z,96692.75
2024-02-07T10:14:32.184Z,96697.75
2024-02-07T10:15:34.066Z,96688.03
2024-02-07T10:16:35.672Z,96684.88
2024-02-07T10:17:37.289Z,96683.66
2024-02-07T10:18:38.944Z,96679.66
2024-02-07T10:19:41.094Z,96682.25
2024-02-07T10:20:55.998Z,96684.44
2024-02-07T10:21:58.941Z,96680.03
2024-02-07T10:23:00.537Z,96685.31
2024-02-07T10:24:06.335Z,96674.28
2024-02-07T10:25:15.663Z,96670.56
2024-02-07T10:26:24.659Z,96666.13
2024-02-07T10:27:26.288Z,96664.88
2024-02-07T10:28:28.348Z,96659.88
2024-02-07T10:29:30.014Z,96666.84
2024-02-07T10:30:32.035Z,96659.31
2024-02-07T10:31:33.729Z,96650.22
2024-02-07T10:32:39.997Z,96647.34
2024-02-07T10:33:43.260Z,96640.94
2024-02-07T10:34:57.177Z,96636.00
2024-02-07T10:36:02.927Z,96634.41
2024-02-07T10:37:04.911Z,96633.53
2024-02-07T10:38:06.498Z,96630.28
2024-02-07T10:39:10.301Z,96628.97
2024-02-07T10:40:12.953Z,96628.13
2024-02-07T10:41:14.918Z,96628.34
2024-02-07T10:42:16.905Z,96634.41
2024-02-07T10:43:25.041Z,96618.72
2024-02-07T10:44:26.673Z,96623.75
2024-02-07T10:45:28.235Z,96617.94
2024-02-07T10:46:29.891Z,96624.94
2024-02-07T10:47:33.589Z,96621.72
2024-02-07T10:48:35.912Z,96621.66
2024-02-07T10:49:37.869Z,96614.94
2024-02-07T10:50:39.928Z,96619.31
2024-02-07T10:51:42.223Z,96622.00
2024-02-07T10:52:44.398Z,96614.53
2024-02-07T10:53:46.044Z,96617.53
2024-02-07T10:54:47.726Z,96609.69
2024-02-07T10:55:50.786Z,96603.72
2024-02-07T10:56:57.662Z,96603.59
2024-02-07T10:58:00.533Z,96602.38
2024-02-07T10:59:02.897Z,96598.06
2024-02-07T11:00:06.557Z,96598.69
2024-02-07T11:01:08.961Z,96592.38
2024-02-07T11:02:16.771Z,96590.75
2024-02-07T11:03:19.299Z,96583.81
2024-02-07T11:04:21.569Z,96591.66
2024-02-07T11:05:25.664Z,96586.47
2024-02-07T11:06:28.752Z,96585.53
2024-02-07T11:07:31.464Z,96581.56
2024-02-07T11:08:33.906Z,96575.81
2024-02-07T11:09:37.568Z,96565.56
2024-02-07T11:10:40.842Z,96569.84
2024-02-07T11:11:43.198Z,96560.69
2024-02-07T11:12:45.085Z,96557.47
2024-02-07T11:13:47.156Z,96559.88
2024-02-07T11:14:51.481Z,96548.41
2024-02-07T11:15:53.197Z,96554.50
2024-02-07T11:16:54.899Z,96544.31
2024-02-07T11:17:56.708Z,96543.81
2024-02-07T11:18:59.610Z,96537.66
2024-02-07T11:20:03.013Z,96539.13
2024-02-07T11:21:06.910Z,96530.00
2024-02-07T11:22:15.228Z,96533.09
2024-02-07T11:23:23.368Z,96533.53
2024-02-07T11:24:25.350Z,96539.34
2024-02-07T11:25:28.599Z,96522.50
2024-02-07T11:26:31.132Z,96537.19
2024-02-07T11:27:32.794Z,96526.50
2024-02-07T11:28:34.688Z,96519.16
2024-02-07T11:29:36.616Z,96519.50
2024-02-07T11:30:38.315Z,96522.66
2024-02-07T11:31:42.125Z,96511.69
2024-02-07T11:32:43.927Z,96513.75
2024-02-07T11:33:53.158Z,96511.88
2024-02-07T11:34:55.188Z,96513.84
2024-02-07T11:36:17.335Z,96510.75
2024-02-07T11:37:19.692Z,96508.78
2024-02-07T11:38:21.425Z,96507.16
2024-02-07T11:39:23.765Z,96498.06
2024-02-07T11:40:28.232Z,96498.06
2024-02-07T11:41:30.042Z,96499.97
2024-02-07T11:42:37.027Z,96497.91
2024-02-07T11:43:38.753Z,96493.28
2024-02-07T11:44:54.560Z,96489.69
2024-02-07T11:46:20.304Z,96488.13
2024-02-07T11:47:31.282Z,96491.66
2024-02-07T11:48:41.847Z,96486.28
2024-02-07T11:49:43.471Z,96488.22
2024-02-07T11:50:47.032Z,96482.31
2024-02-07T11:52:00.824Z,96480.38
2024-02-07T11:53:03.513Z,96489.25
2024-02-07T11:54:08.874Z,96488.50
2024-02-07T11:55:12.421Z,96482.03
2024-02-07T11:56:19.567Z,96472.63
2024-02-07T11:57:22.812Z,96483.59
2024-02-07T11:58:25.837Z,96486.47
2024-02-07T11:59:28.466Z,96485.63
2024-02-07T12:00:31.590Z,96474.31
2024-02-07T12:01:33.470Z,96484.41
2024-02-07T12:02:38.068Z,96477.81
2024-02-07T12:03:42.873Z,96471.91
2024-02-07T12:04:46.015Z,96473.88
2024-02-07T12:05:48.117Z,96476.09
2024-02-07T12:06:51.358Z,96465.03
2024-02-07T12:07:55.788Z,96472.50
2024-02-07T12:08:57.853Z,96470.06
2024-02-07T12:09:59.529Z,96461.00
2024-02-07T12:11:01.249Z,96455.09
2024-02-07T12:12:03.068Z,96449.19
2024-02-07T12:13:04.702Z,96442.16
2024-02-07T12:14:06.390Z,96443.00
2024-02-07T12:15:08.616Z,96449.38
2024-02-07T12:16:11.627Z,96445.31
2024-02-07T12:17:13.815Z,96436.47
2024-02-07T12:18:15.457Z,96439.53
2024-02-07T12:19:17.380Z,96440.66
2024-02-07T12:20:20.018Z,96444.16
2024-02-07T12:21:25.965Z,96445.91
2024-02-07T12:22:36.722Z,96435.72
2024-02-07T12:23:39.100Z,96442.59
2024-02-07T12:24:42.341Z,96441.41
2024-02-07T12:25:44.016Z,96438.78
2024-02-07T12:26:45.604Z,96439.53
2024-02-07T12:27:47.377Z,96435.16
2024-02-07T12:28:55.912Z,96440.88
2024-02-07T12:29:58.783Z,96440.03
2024-02-07T12:31:01.283Z,96433.41
2024-02-07T12:32:03.321Z,96433.00
2024-02-07T12:33:05.598Z,96435.63